Lipscomb, TX

6:58 AM CDT on July 25, 2014 (GMT -0500)
Gage (KGAG) Elev 2195 ft | 36.30 °N, 99.78 °W | Change Station

Current weather conditions updated 5 minutes ago

Clear
Clear
73 °F
Feels Like 73 °F
N
14
Wind Variable Wind from South

Today is forecast to be Warmer than yesterday.

Today
High -- | Low -- °F
--% Chance of Precip.
Yesterday
High -- | Low -- °F
Precip. -- in
6:42 AM 8:52 PM
Waning Crescent, 2% visible
Pressure 29.87 in
Visibility 9.0 miles
Clouds Clear
Dew Point 66 °F
Humidity 79%
Rainfall 0.00 in
Snow Depth Not available.
UV 0 out of 12
Pollen 5.10 out of 12
Air Quality Not available.
Flu Activity Not available.
METAR KGAG 251153Z AUTO 18012KT 9SM CLR 23/19 A2997 RMK AO2 SLP115 T02280189 10278 20228 50002

More Conditions Fewer Conditions

Pressure 29.87 in
Visibility 9.0 miles
Clouds Clear
Dew Point 66 °F
Humidity 79%
Rainfall 0.00 in
Snow Depth Not available.
UV 0 out of 12
Pollen 5.10 out of 12
Air Quality Not available.
Flu Activity Not available.
METAR KGAG 251153Z AUTO 18012KT 9SM CLR 23/19 A2997 RMK AO2 SLP115 T02280189 10278 20228 50002

More Conditions Fewer Conditions

10-Day Weather Forecast

Almanac

Astronomy

Jul. 25, 2014 Rise Set
Actual Time 6:42 AM CDT 8:52 PM CDT
Civil Twilight 6:13 AM CDT 9:21 PM CDT
Nautical Twilight 5:38 AM CDT 9:56 PM CDT
Astronomical Twilight 5:00 AM CDT 10:34 PM CDT
Moon 5:42 AM CDT 7:52 PM CDT
Length of Visible Light 15h 07m
Length of Day
14h 09m
Tomorrow will be 1m 31s shorter.
Waning Crescent, 2% of the Moon is Illuminated
Today
Waning Crescent
Jul 26
New
Aug 3
First Quarter
Aug 10
Full
Aug 17
Last Quarter

Today's Extremes

State Highs State Lows

Community

WunderPhotos

Upload Photos

1,737,291 photos uploaded!

Nearby

Snow Depth

Station Depth Elevation
No new snow has been reported.

Earthquake Activity

City Distance Mag. Time & Date
No recent earthquake activity has been reported nearby.
Minimum magnitude displayed is 2.5.

Coastal Water Temperatures

Place Temperature
No Stations Reporting

Nearby Weather Stations

Station Location Temp. Heat Index Dew Point Humidity Wind Precip. Elev Updated Type
Zender Laundromat, Booker, TX 77.2 °F 79 °F 68 °F 72% SSW  at  5.4 mph 0.00 in / hr 2844 ft 4:54 AM CDT Rapid Fire
APRSWXNET Canadian TX , Canadian, TX 76 °F 78 °F 65 °F 70% WSW  at  3 mph 0.00 in / hr 2434 ft 6:06 AM CDT MADIS

Show More Stations Show Fewer Stations